Mackinaw City, MI (49701)

4:21 AM EDT on August 30, 2015 (GMT -0400)
MesoWest | | Change Station
CLOSE
Current Station
Personal Weather Station
Location: Mackinaw City, MI
Elevation: 646 ft
Nearby Weather Stations

Elev 646 ft 45.76 °N, 84.73 °W | Updated 41 minutes ago

Clear
Clear
57 °F
Feels Like 57 °F
N
2
Wind Variable Wind from North
Gusts 30.0 mph

Today
High -- | Low -- °F
--% Chance of Precip.
Yesterday
High -- | Low -- °F
Precip. -- in
6:57 AM 8:21 PM
Full, 100% visible
Pressure 30.03 in
Visibility 10.0 miles
Clouds Clear
Dew Point 56 °F
Humidity 97%
Rainfall in
Snow Depth Not available.
UV 0 out of 12
Pollen 8.70 out of 12
Air Quality Not available.
Flu Activity Not available.
METAR KMCD 300815Z AUTO 23007KT 10SM CLR 16/15 A3003 RMK AO2 T01550147
Pressure 30.03 in
Visibility 10.0 miles
Clouds Clear
Dew Point 56 °F
Humidity 97%
Rainfall in
Snow Depth Not available.
UV 0 out of 12
Pollen 8.70 out of 12
Air Quality Not available.
Flu Activity Not available.
METAR KMCD 300815Z AUTO 23007KT 10SM CLR 16/15 A3003 RMK AO2 T01550147
Nowcast | as of 4:00 am EDT on August 30, 2015

At 5 am...mostly clear. Areas of fog. Temperature 57. Light winds. At 7 am...partly cloudy. Areas of fog. Temperature 59. Light winds. At 9 am...partly cloudy. Temperature 62. Light winds. At 11 am...partly cloudy. Temperature 66. Southwest winds 6 mph.

×

10-Day Weather Forecast

×

Almanac

Astronomy

Aug. 30, 2015 Rise Set
Actual Time
Civil Twilight
Nautical Twilight
Astronomical Twilight
Moon
Length of Visible Light
Length of Day
Tomorrow will be .
, % of the Moon is Illuminated

Today's Extremes

State Highs State Lows

Community

WunderPhotos

Upload Photos

1,850,909 photos uploaded!

WunderBlogs® & News

Nearby

Air Quality

  Air Quality AQ Index Pollutant
Not available.

Snow Depth

Station Depth Elevation

Earthquake Activity

City Distance Mag. Time & Date
Minimum magnitude displayed is 2.5.

Coastal Water Temperatures

Place Temperature

Stations

Nearby Weather Stations

Station Location Temp. Windchill Dew Point Humidity Wind Precip. Elev Updated Type